Time;durP1;ratioP1;P1;durP2;ratioP2;P2;SDS_P1;SDS_P2;PMS_P1;PMS_P2;Temp;Humidity;BMP_temperature;BMP_pressure;BME280_temperature;BME280_humidity;BME280_pressure;Samples;Min_cycle;Max_cycle;Signal;HPM_P1;HPM_P2
2022/05/07 00:00:38;;;;;;;5.67;5.17;;;;;;;;;;5074193;28;20517;-67
2022/05/07 00:03:04;;;;;;;6.20;5.60;;;;;;;;;;5074462;28;20408;-75
2022/05/07 00:05:31;;;;;;;5.40;4.70;;;;;;;;;;5074223;28;20409;-72
2022/05/07 00:07:57;;;;;;;5.73;5.10;;;;;;;;;;5074268;28;20543;-76
2022/05/07 00:10:23;;;;;;;6.03;5.00;;;;;;;;;;5074105;28;20392;-75
2022/05/07 00:12:49;;;;;;;6.80;6.10;;;;;;;;;;5073940;28;20514;-74
2022/05/07 00:15:15;;;;;;;7.70;5.67;;;;;;;;;;5074166;28;20401;-75
2022/05/07 00:20:26;;;;;;;7.83;5.70;;;;;;;;;;5074041;28;20450;-76
2022/05/07 00:22:52;;;;;;;7.77;5.77;;;;;;;;;;5073890;28;20883;-74
2022/05/07 00:25:19;;;;;;;7.67;5.60;;;;;;;;;;5073902;28;20425;-74
2022/05/07 00:27:44;;;;;;;8.50;5.63;;;;;;;;;;5073788;28;20878;-73
2022/05/07 00:30:11;;;;;;;7.40;6.07;;;;;;;;;;5073682;28;20959;-76
2022/05/07 00:32:37;;;;;;;6.73;5.47;;;;;;;;;;5073697;28;20841;-76
2022/05/07 00:35:03;;;;;;;5.97;5.37;;;;;;;;;;5073644;28;20484;-75
2022/05/07 00:37:29;;;;;;;6.70;5.80;;;;;;;;;;5055961;28;20416;-75
2022/05/07 00:39:55;;;;;;;6.10;5.50;;;;;;;;;;5073644;28;20405;-74
2022/05/07 00:42:21;;;;;;;10.03;5.70;;;;;;;;;;5055967;28;20542;-75
2022/05/07 00:44:47;;;;;;;8.93;5.30;;;;;;;;;;5073610;28;20428;-75
2022/05/07 00:47:23;;;;;;;9.93;5.70;;;;;;;;;;5073426;28;20409;-75
2022/05/07 00:49:50;;;;;;;10.40;5.70;;;;;;;;;;5073625;28;20922;-74
2022/05/07 00:52:18;;;;;;;8.80;5.80;;;;;;;;;;5073413;28;20420;-69
2022/05/07 00:54:44;;;;;;;7.77;5.43;;;;;;;;;;5073444;28;20507;-69
2022/05/07 00:57:12;;;;;;;7.07;5.70;;;;;;;;;;5073468;28;20413;-69
2022/05/07 00:59:38;;;;;;;7.60;5.00;;;;;;;;;;5073305;28;20413;-74
2022/05/07 01:02:04;;;;;;;6.53;5.20;;;;;;;;;;5054472;28;20801;-74
2022/05/07 01:04:30;;;;;;;5.97;5.37;;;;;;;;;;5073266;28;20417;-70
2022/05/07 01:06:56;;;;;;;6.80;5.20;;;;;;;;;;5073102;28;20967;-70
2022/05/07 01:09:22;;;;;;;5.73;5.13;;;;;;;;;;5073305;28;20420;-73
2022/05/07 01:11:48;;;;;;;5.97;5.37;;;;;;;;;;5073140;28;20400;-73
2022/05/07 01:14:14;;;;;;;5.87;5.30;;;;;;;;;;5073222;28;20456;-75
2022/05/07 01:16:40;;;;;;;8.63;5.40;;;;;;;;;;5073129;28;20411;-72
2022/05/07 01:19:06;;;;;;;8.33;5.50;;;;;;;;;;5073105;28;20700;-74
2022/05/07 01:21:32;;;;;;;5.77;5.27;;;;;;;;;;5072977;28;20397;-73
2022/05/07 01:23:59;;;;;;;6.93;5.37;;;;;;;;;;5073205;28;20405;-72
2022/05/07 01:26:26;;;;;;;6.60;5.97;;;;;;;;;;5073003;28;20416;-73
2022/05/07 01:28:58;;;;;;;9.73;5.80;;;;;;;;;;5073072;28;20416;-69
2022/05/07 01:31:25;;;;;;;9.57;6.03;;;;;;;;;;5072897;28;20785;-72
2022/05/07 01:33:52;;;;;;;6.40;5.80;;;;;;;;;;5072872;28;20958;-73
2022/05/07 01:36:19;;;;;;;6.00;5.43;;;;;;;;;;5073180;28;20500;-74
2022/05/07 01:38:45;;;;;;;7.07;5.07;;;;;;;;;;5073077;28;20466;-70
2022/05/07 01:41:11;;;;;;;5.60;5.07;;;;;;;;;;5072805;28;20417;-73
2022/05/07 01:43:37;;;;;;;7.10;5.73;;;;;;;;;;5072931;28;20458;-74
2022/05/07 01:46:03;;;;;;;7.83;5.10;;;;;;;;;;5072911;28;20463;-74
2022/05/07 01:48:30;;;;;;;9.63;5.33;;;;;;;;;;5072783;28;20397;-71
2022/05/07 01:50:56;;;;;;;6.03;4.80;;;;;;;;;;5072849;28;20416;-70
2022/05/07 01:53:22;;;;;;;5.70;5.10;;;;;;;;;;5054729;28;20472;-76
2022/05/07 01:55:48;;;;;;;6.00;5.00;;;;;;;;;;5072795;28;20416;-73
2022/05/07 01:58:14;;;;;;;7.00;5.50;;;;;;;;;;5072764;28;20888;-72
2022/05/07 02:00:40;;;;;;;7.37;5.93;;;;;;;;;;5072556;28;20436;-73
2022/05/07 02:03:07;;;;;;;6.67;4.93;;;;;;;;;;5072781;28;20559;-69
2022/05/07 02:05:33;;;;;;;6.93;5.60;;;;;;;;;;5072641;28;20404;-72
2022/05/07 02:07:59;;;;;;;8.87;6.20;;;;;;;;;;5072532;28;20786;-71
2022/05/07 02:10:25;;;;;;;6.97;5.80;;;;;;;;;;5072574;28;20420;-75
2022/05/07 02:12:51;;;;;;;9.40;6.13;;;;;;;;;;5073947;28;20494;-71
2022/05/07 02:15:17;;;;;;;6.57;5.60;;;;;;;;;;5076479;28;20396;-73
2022/05/07 02:17:43;;;;;;;6.30;5.70;;;;;;;;;;5076300;28;20462;-72
2022/05/07 02:20:10;;;;;;;6.60;5.80;;;;;;;;;;5075835;28;20729;-75
2022/05/07 02:22:36;;;;;;;7.37;5.70;;;;;;;;;;5076390;28;20492;-74
2022/05/07 02:25:02;;;;;;;6.47;5.57;;;;;;;;;;5076230;28;20434;-72
2022/05/07 02:27:28;;;;;;;7.40;5.53;;;;;;;;;;5076150;28;20409;-72
2022/05/07 02:29:54;;;;;;;8.63;5.57;;;;;;;;;;5075930;28;20462;-70
2022/05/07 02:32:20;;;;;;;7.70;6.10;;;;;;;;;;5076046;28;20440;-71
2022/05/07 02:34:46;;;;;;;7.67;5.80;;;;;;;;;;5058075;28;20419;-70
2022/05/07 02:37:13;;;;;;;6.87;6.17;;;;;;;;;;5076005;28;20400;-75
2022/05/07 02:39:39;;;;;;;7.70;6.13;;;;;;;;;;5075860;28;20413;-71
2022/05/07 02:44:50;;;;;;;9.13;5.30;;;;;;;;;;5075971;28;20403;-73
2022/05/07 02:47:16;;;;;;;10.63;6.00;;;;;;;;;;5075818;28;20409;-74
2022/05/07 02:49:42;;;;;;;6.80;6.10;;;;;;;;;;5075722;28;20800;-75
2022/05/07 02:52:08;;;;;;;6.00;5.40;;;;;;;;;;5075673;28;20409;-74
2022/05/07 02:54:34;;;;;;;6.50;5.47;;;;;;;;;;5057684;28;21083;-73
2022/05/07 02:57:00;;;;;;;7.20;5.57;;;;;;;;;;5075588;28;20503;-73
2022/05/07 02:59:26;;;;;;;6.37;5.30;;;;;;;;;;5075469;28;20397;-75
2022/05/07 03:01:52;;;;;;;6.23;4.60;;;;;;;;;;5075408;28;20847;-75
2022/05/07 03:04:19;;;;;;;6.80;4.50;;;;;;;;;;5075402;28;20408;-74
2022/05/07 03:06:45;;;;;;;8.10;5.80;;;;;;;;;;5075216;28;20448;-74
2022/05/07 03:09:11;;;;;;;5.97;5.37;;;;;;;;;;5075452;28;20779;-73
2022/05/07 03:11:37;;;;;;;5.47;4.97;;;;;;;;;;5075397;28;20401;-73
2022/05/07 03:14:04;;;;;;;6.63;5.30;;;;;;;;;;5075225;28;20473;-74
2022/05/07 03:16:31;;;;;;;6.00;5.40;;;;;;;;;;5075232;28;20989;-71
2022/05/07 03:18:57;;;;;;;6.50;5.37;;;;;;;;;;5075159;28;20417;-73
2022/05/07 03:21:23;;;;;;;8.77;5.80;;;;;;;;;;5075197;28;20412;-73
2022/05/07 03:23:49;;;;;;;6.53;5.00;;;;;;;;;;5074807;28;20448;-74
2022/05/07 03:26:17;;;;;;;6.20;5.60;;;;;;;;;;5074905;28;20412;-73
2022/05/07 03:28:43;;;;;;;6.03;5.43;;;;;;;;;;5057125;28;20412;-74
2022/05/07 03:31:09;;;;;;;8.60;5.77;;;;;;;;;;5074997;28;20417;-73
2022/05/07 03:33:35;;;;;;;5.80;5.20;;;;;;;;;;5074894;28;20472;-74
2022/05/07 03:36:01;;;;;;;7.20;5.90;;;;;;;;;;5074771;28;20421;-75
2022/05/07 03:38:27;;;;;;;7.03;6.00;;;;;;;;;;5074859;28;20742;-73
2022/05/07 03:40:54;;;;;;;7.00;5.50;;;;;;;;;;5074679;28;20427;-75
2022/05/07 03:43:20;;;;;;;5.50;5.00;;;;;;;;;;5074778;28;20405;-75
2022/05/07 03:45:46;;;;;;;6.57;4.77;;;;;;;;;;5074667;28;20902;-72
2022/05/07 03:48:12;;;;;;;7.30;5.47;;;;;;;;;;5074638;28;20405;-74
2022/05/07 03:50:38;;;;;;;6.93;5.17;;;;;;;;;;5074640;28;20397;-72
2022/05/07 03:55:48;;;;;;;5.03;4.63;;;;;;;;;;5074529;28;20893;-73
2022/05/07 03:58:15;;;;;;;8.50;5.60;;;;;;;;;;5074413;28;20436;-74
2022/05/07 04:00:45;;;;;;;6.50;5.37;;;;;;;;;;5074088;28;20478;-73
2022/05/07 04:03:11;;;;;;;7.03;5.50;;;;;;;;;;5074332;28;20408;-74
2022/05/07 04:05:38;;;;;;;5.60;5.00;;;;;;;;;;5074181;28;20496;-69
2022/05/07 04:08:04;;;;;;;6.97;5.53;;;;;;;;;;5074255;28;20413;-72
2022/05/07 04:10:30;;;;;;;8.40;5.97;;;;;;;;;;5074055;28;20906;-74
2022/05/07 04:12:56;;;;;;;6.40;5.50;;;;;;;;;;5074039;28;20452;-71
2022/05/07 04:15:22;;;;;;;6.07;5.13;;;;;;;;;;5074214;28;20425;-71
2022/05/07 04:17:49;;;;;;;6.80;5.67;;;;;;;;;;5073895;28;20768;-73
2022/05/07 04:20:15;;;;;;;7.63;5.90;;;;;;;;;;5073855;28;20412;-70
2022/05/07 04:22:41;;;;;;;5.80;5.20;;;;;;;;;;5073939;28;20818;-70
2022/05/07 04:25:08;;;;;;;5.20;4.43;;;;;;;;;;5074013;28;20919;-73
2022/05/07 04:27:34;;;;;;;5.90;5.30;;;;;;;;;;5073730;28;20404;-74
2022/05/07 04:30:00;;;;;;;7.00;5.23;;;;;;;;;;5073718;28;20428;-73
2022/05/07 04:32:27;;;;;;;8.57;5.90;;;;;;;;;;5073804;28;20887;-74
2022/05/07 04:34:55;;;;;;;5.30;4.80;;;;;;;;;;5055877;28;20424;-70
2022/05/07 04:37:21;;;;;;;5.83;5.23;;;;;;;;;;5072800;28;20491;-72
2022/05/07 04:39:47;;;;;;;6.10;5.50;;;;;;;;;;5073418;28;20990;-74
2022/05/07 04:42:13;;;;;;;6.10;5.03;;;;;;;;;;5073576;28;20392;-72
2022/05/07 04:44:39;;;;;;;8.77;5.70;;;;;;;;;;5073605;28;20900;-71
2022/05/07 04:47:05;;;;;;;9.93;6.27;;;;;;;;;;5039112;28;20409;-70
2022/05/07 04:49:32;;;;;;;6.53;5.40;;;;;;;;;;5055641;28;20417;-73
2022/05/07 04:51:58;;;;;;;8.73;5.87;;;;;;;;;;5073626;28;20432;-73
2022/05/07 04:54:24;;;;;;;6.10;5.10;;;;;;;;;;5073464;28;20456;-73
2022/05/07 04:56:51;;;;;;;6.57;5.50;;;;;;;;;;5073370;28;20416;-72
2022/05/07 04:59:17;;;;;;;6.00;5.17;;;;;;;;;;5073312;28;20413;-66
2022/05/07 05:01:44;;;;;;;7.80;5.00;;;;;;;;;;5055250;28;20941;-74
2022/05/07 05:04:12;;;;;;;9.43;5.37;;;;;;;;;;5073406;28;20413;-71
2022/05/07 05:06:38;;;;;;;8.23;4.97;;;;;;;;;;5073095;28;20514;-69
2022/05/07 05:09:06;;;;;;;6.47;5.40;;;;;;;;;;5073199;28;20749;-71
2022/05/07 05:11:33;;;;;;;8.17;5.10;;;;;;;;;;5073158;28;20421;-71
2022/05/07 05:13:59;;;;;;;5.30;4.80;;;;;;;;;;5073231;28;20526;-69
2022/05/07 05:16:25;;;;;;;6.80;5.53;;;;;;;;;;5073196;28;20405;-67
2022/05/07 05:18:51;;;;;;;7.87;5.73;;;;;;;;;;5072934;28;20421;-66
2022/05/07 05:21:17;;;;;;;6.57;5.37;;;;;;;;;;5073096;28;20906;-72
2022/05/07 05:23:46;;;;;;;7.73;6.80;;;;;;;;;;5073169;28;20424;-73
2022/05/07 05:26:12;;;;;;;8.27;6.50;;;;;;;;;;5073119;28;20760;-69
2022/05/07 05:28:39;;;;;;;8.60;5.87;;;;;;;;;;5073002;28;20887;-66
2022/05/07 05:31:06;;;;;;;7.30;5.80;;;;;;;;;;5072960;28;20432;-68
2022/05/07 05:33:32;;;;;;;6.53;5.57;;;;;;;;;;5072867;28;20567;-67
2022/05/07 05:35:57;;;;;;;6.97;6.27;;;;;;;;;;5073038;28;20538;-63
2022/05/07 05:38:24;;;;;;;7.80;6.00;;;;;;;;;;5073019;28;20803;-64
2022/05/07 05:40:50;;;;;;;6.80;5.83;;;;;;;;;;5072705;28;20462;-72
2022/05/07 05:43:17;;;;;;;7.97;5.70;;;;;;;;;;5072720;28;20400;-66
2022/05/07 05:45:44;;;;;;;6.43;5.80;;;;;;;;;;5072890;28;20405;-66
2022/05/07 05:48:10;;;;;;;8.37;6.20;;;;;;;;;;5074824;28;20411;-64
2022/05/07 05:50:38;;;;;;;8.30;6.80;;;;;;;;;;5058780;28;20807;-71
2022/05/07 05:53:04;;;;;;;6.90;6.10;;;;;;;;;;5076595;28;20452;-69
2022/05/07 05:55:30;;;;;;;6.80;6.10;;;;;;;;;;5058656;28;20519;-69
2022/05/07 05:57:56;;;;;;;7.40;6.40;;;;;;;;;;5076641;28;20828;-66
2022/05/07 06:00:22;;;;;;;8.50;6.50;;;;;;;;;;5076297;28;20528;-66
2022/05/07 06:02:48;;;;;;;8.00;6.67;;;;;;;;;;5076529;28;20492;-73
2022/05/07 06:05:16;;;;;;;8.93;6.20;;;;;;;;;;5076580;28;20496;-67
2022/05/07 06:07:42;;;;;;;8.37;6.77;;;;;;;;;;5076415;28;20456;-64
2022/05/07 06:10:08;;;;;;;8.30;6.83;;;;;;;;;;5076212;28;20489;-64
2022/05/07 06:12:34;;;;;;;9.43;6.80;;;;;;;;;;5076208;28;20404;-67
2022/05/07 06:15:00;;;;;;;7.80;6.93;;;;;;;;;;5076424;28;20422;-67
2022/05/07 06:17:27;;;;;;;10.10;7.47;;;;;;;;;;5076255;28;20404;-65
2022/05/07 06:19:53;;;;;;;14.40;9.17;;;;;;;;;;5076031;28;20412;-64
2022/05/07 06:22:19;;;;;;;10.17;7.40;;;;;;;;;;5076246;28;20417;-63
2022/05/07 06:27:33;;;;;;;9.90;7.33;;;;;;;;;;5076533;28;20403;-64
2022/05/07 06:29:59;;;;;;;10.83;8.10;;;;;;;;;;5076025;28;20446;-65
2022/05/07 06:32:34;;;;;;;17.20;8.90;;;;;;;;;;5075972;28;20412;-63
2022/05/07 06:35:03;;;;;;;10.63;8.73;;;;;;;;;;5075999;28;20443;-67
2022/05/07 06:37:29;;;;;;;15.00;8.83;;;;;;;;;;5076088;28;20413;-66
2022/05/07 06:39:55;;;;;;;14.70;10.40;;;;;;;;;;5075707;28;20895;-72
2022/05/07 06:42:21;;;;;;;15.07;8.90;;;;;;;;;;5075772;28;20929;-69
2022/05/07 06:44:47;;;;;;;13.70;9.03;;;;;;;;;;5075872;28;20404;-63
2022/05/07 06:47:14;;;;;;;11.87;9.20;;;;;;;;;;5057966;28;20426;-68
2022/05/07 06:49:41;;;;;;;13.67;10.00;;;;;;;;;;5075734;28;20417;-68
2022/05/07 06:52:07;;;;;;;13.40;10.30;;;;;;;;;;5075605;28;20422;-67
2022/05/07 06:54:33;;;;;;;12.37;10.43;;;;;;;;;;5075563;28;20557;-63
2022/05/07 06:56:59;;;;;;;11.90;9.70;;;;;;;;;;5075719;28;20427;-71
2022/05/07 06:59:26;;;;;;;25.07;10.37;;;;;;;;;;5074274;28;21002;-69
2022/05/07 07:01:54;;;;;;;12.93;9.57;;;;;;;;;;5075435;28;20903;-66
2022/05/07 07:04:20;;;;;;;13.90;9.90;;;;;;;;;;5075306;28;20546;-64
2022/05/07 07:06:46;;;;;;;12.50;9.73;;;;;;;;;;5073197;28;20463;-69
2022/05/07 07:09:12;;;;;;;15.10;10.30;;;;;;;;;;5095590;28;20407;-67
2022/05/07 07:11:38;;;;;;;14.17;9.67;;;;;;;;;;5095513;28;20415;-68
2022/05/07 07:14:04;;;;;;;15.90;10.67;;;;;;;;;;5095390;28;20471;-71
2022/05/07 07:16:30;;;;;;;16.03;9.93;;;;;;;;;;5094368;28;20449;-70
2022/05/07 07:18:56;;;;;;;13.20;10.00;;;;;;;;;;5095314;28;20440;-70
2022/05/07 07:21:22;;;;;;;13.43;9.43;;;;;;;;;;5095408;28;20484;-74
2022/05/07 07:23:48;;;;;;;15.07;9.80;;;;;;;;;;5095401;28;20502;-66
2022/05/07 07:26:15;;;;;;;14.03;9.50;;;;;;;;;;5095359;28;20404;-63
2022/05/07 07:28:41;;;;;;;15.23;9.50;;;;;;;;;;5094989;28;20412;-65
2022/05/07 07:31:10;;;;;;;11.47;8.63;;;;;;;;;;5095023;28;20429;-69
2022/05/07 07:33:38;;;;;;;9.70;7.80;;;;;;;;;;5095114;28;20471;-72
2022/05/07 07:36:04;;;;;;;11.73;9.23;;;;;;;;;;5095111;28;20407;-72
2022/05/07 07:38:30;;;;;;;14.70;10.80;;;;;;;;;;5094876;28;20458;-65
2022/05/07 07:40:56;;;;;;;10.90;9.50;;;;;;;;;;5094780;28;20407;-72
2022/05/07 07:43:23;;;;;;;9.63;7.77;;;;;;;;;;5094915;28;20494;-72
2022/05/07 07:48:34;;;;;;;12.00;8.63;;;;;;;;;;5095268;28;20889;-71
2022/05/07 07:51:00;;;;;;;15.57;8.97;;;;;;;;;;5094687;28;20483;-68
2022/05/07 07:53:26;;;;;;;13.33;8.97;;;;;;;;;;5094768;28;21006;-64
2022/05/07 07:55:52;;;;;;;9.53;8.57;;;;;;;;;;5094683;28;20777;-73
2022/05/07 07:58:18;;;;;;;13.07;9.37;;;;;;;;;;5094546;28;20427;-72
2022/05/07 08:00:44;;;;;;;11.80;9.67;;;;;;;;;;5094368;28;20427;-63
2022/05/07 08:03:12;;;;;;;12.23;9.33;;;;;;;;;;5094469;28;20419;-71
2022/05/07 08:05:38;;;;;;;12.67;9.80;;;;;;;;;;5094191;28;20415;-62
2022/05/07 08:13:35;;;;;;;16.00;10.83;;;;;;;;;;5074331;28;20814;-64
2022/05/07 08:16:03;;;;;;;14.87;10.80;;;;;;;;;;5074008;28;20928;-63
2022/05/07 08:18:29;;;;;;;13.93;10.93;;;;;;;;;;5073960;28;20512;-65
2022/05/07 08:20:56;;;;;;;15.43;11.67;;;;;;;;;;5073868;28;20900;-63
2022/05/07 08:23:22;;;;;;;15.80;11.13;;;;;;;;;;5074039;28;20926;-65
2022/05/07 08:25:48;;;;;;;14.53;11.20;;;;;;;;;;5073869;28;20884;-69
2022/05/07 08:28:15;;;;;;;16.17;11.00;;;;;;;;;;5073766;28;20437;-68
2022/05/07 08:30:41;;;;;;;16.43;11.13;;;;;;;;;;5073722;28;20456;-63
2022/05/07 08:33:07;;;;;;;15.70;11.53;;;;;;;;;;5073711;28;20460;-65
2022/05/07 08:35:33;;;;;;;14.53;12.17;;;;;;;;;;5055870;28;20511;-63
2022/05/07 08:38:00;;;;;;;16.13;11.90;;;;;;;;;;5073693;28;20424;-65
2022/05/07 08:40:27;;;;;;;17.27;11.87;;;;;;;;;;5073475;28;20447;-65
2022/05/07 08:42:53;;;;;;;17.13;13.13;;;;;;;;;;5073524;28;20421;-64
2022/05/07 08:45:19;;;;;;;17.50;12.90;;;;;;;;;;5073723;28;20405;-63
2022/05/07 08:47:45;;;;;;;16.90;13.00;;;;;;;;;;5073514;28;20400;-63
2022/05/07 08:50:13;;;;;;;16.40;11.90;;;;;;;;;;5073444;28;20486;-62
2022/05/07 08:52:42;;;;;;;20.13;13.93;;;;;;;;;;5073455;28;20412;-62
2022/05/07 08:55:12;;;;;;;22.27;12.97;;;;;;;;;;5073297;28;20491;-62
2022/05/07 08:57:39;;;;;;;18.70;13.20;;;;;;;;;;5073382;28;20782;-63
2022/05/07 09:00:06;;;;;;;16.70;12.47;;;;;;;;;;5073158;28;20510;-64
2022/05/07 09:02:42;;;;;;;16.97;13.53;;;;;;;;;;5073312;28;20408;-61
2022/05/07 09:05:12;;;;;;;16.63;12.50;;;;;;;;;;5073385;28;20485;-63
2022/05/07 09:07:41;;;;;;;17.63;13.03;;;;;;;;;;5073162;28;20448;-61
2022/05/07 09:10:11;;;;;;;17.63;13.43;;;;;;;;;;5073263;28;20413;-65
2022/05/07 09:12:37;;;;;;;16.97;13.27;;;;;;;;;;5073171;28;20937;-63
2022/05/07 09:15:04;;;;;;;17.00;12.20;;;;;;;;;;5073053;28;20429;-63
2022/05/07 09:17:30;;;;;;;14.23;12.17;;;;;;;;;;5073172;28;20416;-63
2022/05/07 09:19:56;;;;;;;13.50;11.77;;;;;;;;;;5072948;28;20421;-63
2022/05/07 09:22:22;;;;;;;12.17;10.50;;;;;;;;;;5072669;28;20421;-63
2022/05/07 09:24:56;;;;;;;16.20;11.70;;;;;;;;;;5073084;28;20743;-62
2022/05/07 09:27:22;;;;;;;14.60;8.90;;;;;;;;;;5073220;28;20474;-63
2022/05/07 09:30:02;;;;;;;8.67;7.03;;;;;;;;;;5072856;28;20404;-63
2022/05/07 09:32:36;;;;;;;10.13;7.90;;;;;;;;;;5072963;28;20487;-62
2022/05/07 09:37:46;;;;;;;9.00;7.30;;;;;;;;;;5073052;28;20423;-62
2022/05/07 09:40:12;;;;;;;9.17;7.23;;;;;;;;;;5072888;28;20795;-63
2022/05/07 09:42:39;;;;;;;11.30;10.20;;;;;;;;;;5072996;28;20412;-63
2022/05/07 09:45:06;;;;;;;9.67;7.20;;;;;;;;;;5072889;28;20404;-64
2022/05/07 09:47:33;;;;;;;13.03;11.60;;;;;;;;;;5055024;28;20459;-63
2022/05/07 09:58:16;;;;;;;5.20;4.63;;;;;;;;;;5073045;28;20829;-72
2022/05/07 10:00:48;;;;;;;5.80;3.87;;;;;;;;;;5072445;28;20428;-68
2022/05/07 10:03:23;;;;;;;5.70;5.10;;;;;;;;;;5072619;28;20474;-63
2022/05/07 10:05:49;;;;;;;8.03;6.00;;;;;;;;;;5072456;28;20402;-66
2022/05/07 10:08:18;;;;;;;6.90;4.60;;;;;;;;;;5072637;28;20425;-62
2022/05/07 10:10:45;;;;;;;4.40;4.00;;;;;;;;;;5072618;28;20907;-63
2022/05/07 10:13:16;;;;;;;4.77;4.30;;;;;;;;;;5072490;28;20935;-63
2022/05/07 10:15:41;;;;;;;4.93;3.40;;;;;;;;;;5072577;28;20401;-67
2022/05/07 10:18:14;;;;;;;4.03;3.27;;;;;;;;;;5072602;28;20434;-63
2022/05/07 10:20:44;;;;;;;21.03;15.30;;;;;;;;;;5072429;28;20392;-63
2022/05/07 10:23:11;;;;;;;6.63;5.20;;;;;;;;;;5072679;28;20430;-63
2022/05/07 10:25:38;;;;;;;9.30;6.40;;;;;;;;;;5054545;28;20404;-63
2022/05/07 10:28:09;;;;;;;5.70;4.63;;;;;;;;;;5072490;28;20903;-63
2022/05/07 10:30:45;;;;;;;8.47;6.43;;;;;;;;;;5072372;28;20423;-63
2022/05/07 10:33:11;;;;;;;2.20;2.10;;;;;;;;;;5072796;28;20458;-63
2022/05/07 10:35:38;;;;;;;6.67;4.27;;;;;;;;;;5076097;28;20416;-63
2022/05/07 10:38:08;;;;;;;66.03;44.67;;;;;;;;;;5076038;28;20424;-63
2022/05/07 10:40:34;;;;;;;16.67;11.67;;;;;;;;;;5075898;28;20405;-63
2022/05/07 10:43:00;;;;;;;5.43;3.80;;;;;;;;;;5075845;28;20408;-63
2022/05/07 10:45:29;;;;;;;4.83;3.00;;;;;;;;;;5075909;28;20442;-64
2022/05/07 10:47:57;;;;;;;8.33;6.00;;;;;;;;;;5075774;28;20412;-63
2022/05/07 10:50:23;;;;;;;7.80;6.60;;;;;;;;;;5075643;28;20413;-64
2022/05/07 10:52:55;;;;;;;4.57;4.10;;;;;;;;;;5075748;28;20912;-63
2022/05/07 10:55:25;;;;;;;4.00;3.70;;;;;;;;;;5075625;28;20962;-63
2022/05/07 10:57:52;;;;;;;5.40;4.23;;;;;;;;;;5075735;28;20879;-64
2022/05/07 11:00:22;;;;;;;4.67;4.27;;;;;;;;;;5075310;28;20482;-63
2022/05/07 11:02:49;;;;;;;9.17;5.30;;;;;;;;;;5075609;28;20409;-63
2022/05/07 11:05:16;;;;;;;7.87;4.37;;;;;;;;;;5075476;28;20397;-63
2022/05/07 11:07:43;;;;;;;6.57;4.83;;;;;;;;;;5075482;28;20471;-64
2022/05/07 11:10:09;;;;;;;6.43;4.60;;;;;;;;;;5075553;28;20439;-63
2022/05/07 11:12:36;;;;;;;13.83;9.57;;;;;;;;;;5075392;28;20444;-64
2022/05/07 11:15:04;;;;;;;7.60;5.63;;;;;;;;;;5057707;28;20970;-64
2022/05/07 11:17:32;;;;;;;7.87;4.90;;;;;;;;;;5075362;28;20401;-69
2022/05/07 11:19:58;;;;;;;4.40;4.10;;;;;;;;;;5075186;28;20409;-63
2022/05/07 11:22:29;;;;;;;5.70;4.70;;;;;;;;;;5075118;28;20405;-64
2022/05/07 11:24:57;;;;;;;5.53;4.90;;;;;;;;;;5075311;28;20486;-63
2022/05/07 11:27:26;;;;;;;4.50;3.90;;;;;;;;;;5075093;28;20896;-63
2022/05/07 11:29:53;;;;;;;6.37;4.33;;;;;;;;;;5074736;28;20400;-63
2022/05/07 11:32:19;;;;;;;4.13;3.87;;;;;;;;;;5075023;28;20911;-67
2022/05/07 11:34:45;;;;;;;7.70;3.70;;;;;;;;;;5074804;28;20464;-63
2022/05/07 11:37:11;;;;;;;4.67;4.27;;;;;;;;;;5074929;28;20404;-64
2022/05/07 11:39:47;;;;;;;4.40;3.13;;;;;;;;;;5074668;28;20467;-63
2022/05/07 11:42:25;;;;;;;5.20;3.10;;;;;;;;;;5074759;28;20419;-63
2022/05/07 11:47:50;;;;;;;5.63;3.50;;;;;;;;;;5075022;28;20436;-63
2022/05/07 11:50:21;;;;;;;3.33;3.13;;;;;;;;;;5056723;28;20405;-63
2022/05/07 11:52:47;;;;;;;5.90;3.97;;;;;;;;;;5074476;28;20407;-63
2022/05/07 11:55:13;;;;;;;4.03;3.70;;;;;;;;;;5074497;28;20853;-63
2022/05/07 11:57:43;;;;;;;3.63;3.33;;;;;;;;;;5074427;28;20408;-63
2022/05/07 12:00:13;;;;;;;3.40;3.00;;;;;;;;;;5074201;28;20438;-63
2022/05/07 12:02:40;;;;;;;3.57;3.30;;;;;;;;;;5056399;28;20959;-63
2022/05/07 12:05:06;;;;;;;3.50;3.20;;;;;;;;;;5074346;28;20417;-63
2022/05/07 12:07:41;;;;;;;5.13;2.90;;;;;;;;;;5074095;28;20468;-67
2022/05/07 12:10:07;;;;;;;3.87;3.50;;;;;;;;;;5074200;28;20412;-64
2022/05/07 12:12:33;;;;;;;3.27;3.07;;;;;;;;;;5074123;28;20408;-63
2022/05/07 12:14:59;;;;;;;3.17;2.97;;;;;;;;;;5056233;28;20468;-63
2022/05/07 12:20:10;;;;;;;6.83;4.07;;;;;;;;;;5073937;28;20427;-63
2022/05/07 12:30:50;;;;;;;4.10;3.70;;;;;;;;;;5073799;28;20427;-62
2022/05/07 12:33:16;;;;;;;4.03;3.73;;;;;;;;;;5073749;28;20495;-65
2022/05/07 12:35:43;;;;;;;4.00;3.73;;;;;;;;;;5073732;28;20424;-65
2022/05/07 12:38:10;;;;;;;4.60;3.40;;;;;;;;;;5073724;28;20821;-63
2022/05/07 12:40:36;;;;;;;3.77;3.47;;;;;;;;;;5073579;28;20876;-64
2022/05/07 12:43:02;;;;;;;3.87;3.53;;;;;;;;;;5073604;28;20404;-62
2022/05/07 12:45:28;;;;;;;4.60;4.20;;;;;;;;;;5073626;28;20549;-64
2022/05/07 12:47:54;;;;;;;3.20;3.00;;;;;;;;;;5073557;28;20413;-65
2022/05/07 12:50:20;;;;;;;3.90;3.60;;;;;;;;;;5073466;28;20919;-63
2022/05/07 12:52:46;;;;;;;3.40;3.10;;;;;;;;;;5073482;28;20458;-63
2022/05/07 12:55:13;;;;;;;3.50;3.20;;;;;;;;;;5073338;28;20938;-63
2022/05/07 12:57:39;;;;;;;5.33;3.37;;;;;;;;;;5072708;28;20883;-63
2022/05/07 13:00:06;;;;;;;4.17;3.87;;;;;;;;;;5073092;28;20424;-63
2022/05/07 13:02:32;;;;;;;4.20;3.30;;;;;;;;;;5073399;28;20405;-64
2022/05/07 13:04:58;;;;;;;5.13;4.13;;;;;;;;;;5073370;28;20408;-64
2022/05/07 13:07:24;;;;;;;3.70;3.43;;;;;;;;;;5073137;28;20521;-64
2022/05/07 13:09:50;;;;;;;4.40;3.07;;;;;;;;;;5073321;28;20902;-74
2022/05/07 13:12:16;;;;;;;3.00;2.80;;;;;;;;;;5073241;28;20414;-72
2022/05/07 13:14:42;;;;;;;3.40;3.20;;;;;;;;;;5073231;28;20551;-73
2022/05/07 13:17:08;;;;;;;3.07;2.80;;;;;;;;;;5073070;28;20405;-71
2022/05/07 13:19:34;;;;;;;3.60;3.30;;;;;;;;;;5072901;28;20424;-71
2022/05/07 13:22:00;;;;;;;3.73;3.43;;;;;;;;;;5073120;28;20397;-66
2022/05/07 13:24:26;;;;;;;3.30;3.00;;;;;;;;;;5073046;28;20427;-64
2022/05/07 13:26:52;;;;;;;3.20;3.00;;;;;;;;;;5073092;28;20448;-63
2022/05/07 13:29:18;;;;;;;3.27;2.97;;;;;;;;;;5055030;28;20432;-64
2022/05/07 13:31:44;;;;;;;3.33;3.07;;;;;;;;;;5054944;28;20468;-75
2022/05/07 13:34:10;;;;;;;5.20;3.27;;;;;;;;;;5072808;28;20519;-73
2022/05/07 13:36:36;;;;;;;4.37;2.70;;;;;;;;;;5072765;28;20440;-75
2022/05/07 13:39:04;;;;;;;3.30;2.83;;;;;;;;;;5072889;28;20444;-75
2022/05/07 13:41:30;;;;;;;3.90;2.97;;;;;;;;;;5072951;28;20900;-71
2022/05/07 13:43:56;;;;;;;3.83;3.53;;;;;;;;;;5054966;28;20416;-72
2022/05/07 13:46:23;;;;;;;3.40;3.10;;;;;;;;;;5054858;28;20415;-75
2022/05/07 13:48:53;;;;;;;3.53;3.23;;;;;;;;;;5054968;28;20507;-75
2022/05/07 13:51:20;;;;;;;3.03;2.67;;;;;;;;;;5072879;28;20504;-67
2022/05/07 13:53:46;;;;;;;4.33;3.00;;;;;;;;;;5072823;28;20468;-64
2022/05/07 13:56:13;;;;;;;3.53;3.13;;;;;;;;;;5072753;28;20405;-74
2022/05/07 13:58:41;;;;;;;3.00;2.80;;;;;;;;;;5072567;28;20415;-76
2022/05/07 14:01:13;;;;;;;3.47;3.17;;;;;;;;;;5072593;28;20425;-75
2022/05/07 14:03:39;;;;;;;6.67;3.87;;;;;;;;;;5072657;28;20933;-75
2022/05/07 14:06:06;;;;;;;3.40;3.10;;;;;;;;;;5072428;28;20439;-75
2022/05/07 14:08:32;;;;;;;3.30;3.10;;;;;;;;;;5073557;28;20416;-75
2022/05/07 14:10:58;;;;;;;3.47;2.73;;;;;;;;;;5076367;28;20404;-72
2022/05/07 14:13:24;;;;;;;6.17;4.00;;;;;;;;;;5058317;28;20829;-68
2022/05/07 14:15:50;;;;;;;3.10;2.80;;;;;;;;;;5076592;28;20408;-76
2022/05/07 14:18:16;;;;;;;3.43;3.17;;;;;;;;;;5076342;28;20428;-64
2022/05/07 14:20:42;;;;;;;3.40;2.97;;;;;;;;;;5076261;28;20397;-71
2022/05/07 14:23:11;;;;;;;4.53;3.50;;;;;;;;;;5076364;28;20879;-73
2022/05/07 14:25:37;;;;;;;3.23;2.93;;;;;;;;;;5076168;28;20409;-64
2022/05/07 14:28:03;;;;;;;4.70;3.60;;;;;;;;;;5076313;28;20408;-64
2022/05/07 14:30:29;;;;;;;3.67;3.43;;;;;;;;;;5076045;28;20420;-63
2022/05/07 14:32:55;;;;;;;8.53;4.27;;;;;;;;;;5076067;28;20427;-66
2022/05/07 14:35:22;;;;;;;4.33;3.93;;;;;;;;;;5076125;28;20409;-70
2022/05/07 14:37:48;;;;;;;3.43;3.23;;;;;;;;;;5076112;28;20408;-68
2022/05/07 14:40:31;;;;;;;4.20;3.80;;;;;;;;;;5075884;28;20519;-63
2022/05/07 14:42:57;;;;;;;4.40;3.23;;;;;;;;;;5076044;28;20433;-70
2022/05/07 14:45:23;;;;;;;3.77;3.53;;;;;;;;;;5075850;28;20458;-63
2022/05/07 14:47:49;;;;;;;4.63;4.23;;;;;;;;;;5075838;28;20757;-73
2022/05/07 14:50:15;;;;;;;3.87;3.57;;;;;;;;;;5075673;28;20552;-63
2022/05/07 14:52:41;;;;;;;4.60;4.20;;;;;;;;;;5075836;28;20879;-63
2022/05/07 14:55:08;;;;;;;5.00;4.60;;;;;;;;;;5075625;28;20472;-65
2022/05/07 14:57:34;;;;;;;5.27;4.77;;;;;;;;;;5075826;28;20440;-75
2022/05/07 15:00:00;;;;;;;8.03;4.17;;;;;;;;;;5075496;28;20479;-74
2022/05/07 15:02:26;;;;;;;4.20;3.90;;;;;;;;;;5075430;28;20887;-69
2022/05/07 15:04:52;;;;;;;4.73;4.33;;;;;;;;;;5075599;28;20538;-68
2022/05/07 15:07:18;;;;;;;4.20;3.80;;;;;;;;;;5075229;28;20559;-66
2022/05/07 15:12:29;;;;;;;5.13;4.13;;;;;;;;;;5075405;28;20446;-71
2022/05/07 15:14:55;;;;;;;4.13;3.83;;;;;;;;;;5075255;28;20997;-62
2022/05/07 15:17:21;;;;;;;5.73;4.23;;;;;;;;;;5075240;28;20428;-67
2022/05/07 15:19:47;;;;;;;4.80;3.83;;;;;;;;;;5074299;28;20887;-65
2022/05/07 15:22:13;;;;;;;4.90;4.40;;;;;;;;;;5074854;28;20405;-65